Time;durP1;ratioP1;P1;durP2;ratioP2;P2;SDS_P1;SDS_P2;PMS_P1;PMS_P2;Temp;Humidity;BMP_temperature;BMP_pressure;BME280_temperature;BME280_humidity;BME280_pressure;Samples;Min_cycle;Max_cycle;Signal;HPM_P1;HPM_P2
2022/01/03 00:01:45;;;;;;;15.55;9.25;;;;;;;0.57;100.00;98302.70;1804910;79;20966;-67
2022/01/03 00:04:13;;;;;;;17.45;10.03;;;;;;;0.57;100.00;98294.78;1804897;79;20962;-68
2022/01/03 00:06:41;;;;;;;9.40;7.25;;;;;;;0.60;100.00;98281.94;1825934;78;22296;-67
2022/01/03 00:09:08;;;;;;;15.70;11.00;;;;;;;0.63;100.00;98276.72;1832089;78;20976;-66
2022/01/03 00:11:37;;;;;;;;;;;;;;;0.63;100.00;98272.77;1834907;78;20862;-67
2022/01/03 00:14:05;;;;;;;23.57;10.68;;;;;;;0.67;100.00;98272.63;1832072;78;20159;-67
2022/01/03 00:16:37;;;;;;;18.00;12.63;;;;;;;0.67;100.00;98269.98;1832238;78;20945;-66
2022/01/03 00:19:05;;;;;;;14.33;9.28;;;;;;;0.70;100.00;98278.78;1832480;77;21132;-68
2022/01/03 00:21:47;;;;;;;16.65;10.40;;;;;;;0.71;100.00;98258.45;1832206;78;20921;-68
2022/01/03 00:24:13;;;;;;;17.02;12.40;;;;;;;0.72;100.00;98255.59;1832387;78;21439;-67
2022/01/03 00:26:42;;;;;;;15.90;11.28;;;;;;;0.77;100.00;98260.22;1832472;78;21455;-65
2022/01/03 00:29:17;;;;;;;12.33;8.90;;;;;;;0.79;100.00;98230.44;1832219;78;20981;-66
2022/01/03 00:31:45;;;;;;;12.75;9.15;;;;;;;0.82;100.00;98240.55;1831363;78;21767;-67
2022/01/03 00:34:15;;;;;;;18.48;11.97;;;;;;;0.85;100.00;98232.97;1805995;78;20860;-64
2022/01/03 00:36:46;;;;;;;14.78;10.08;;;;;;;0.89;100.00;98235.19;1805013;79;21512;-67
2022/01/03 00:39:13;;;;;;;14.33;8.45;;;;;;;0.91;100.00;98231.78;1782278;79;20973;-67
2022/01/03 00:41:42;;;;;;;20.90;11.93;;;;;;;0.91;100.00;98220.72;1804821;79;20926;-66
2022/01/03 00:44:09;;;;;;;20.52;11.40;;;;;;;0.93;100.00;98214.70;1810002;78;21122;-67
2022/01/03 00:46:36;;;;;;;14.00;9.43;;;;;;;0.95;100.00;98196.77;1836937;78;20895;-69
2022/01/03 00:49:05;;;;;;;;;;;;;;;0.97;100.00;98200.00;1807720;78;20995;-68
2022/01/03 00:51:35;;;;;;;23.10;13.40;;;;;;;1.00;100.00;98211.43;1815511;78;20433;-67
2022/01/03 00:54:04;;;;;;;20.20;13.43;;;;;;;1.00;100.00;98215.39;1838125;78;21364;-68
2022/01/03 00:56:43;;;;;;;19.07;11.75;;;;;;;1.00;100.00;98198.22;1837691;77;20854;-66
2022/01/03 00:59:15;;;;;;;14.47;10.72;;;;;;;1.01;100.00;98181.35;1837825;78;20894;-65
2022/01/03 01:01:51;;;;;;;13.85;9.53;;;;;;;1.15;100.00;98200.97;1838008;77;20936;-66
2022/01/03 01:04:21;;;;;;;15.25;11.40;;;;;;;1.12;100.00;98171.83;1837895;78;21048;-66
2022/01/03 01:06:56;;;;;;;17.92;10.38;;;;;;;1.15;100.00;98175.86;1810092;77;20949;-65
2022/01/03 01:09:26;;;;;;;15.88;11.68;;;;;;;1.19;100.00;98188.40;1805095;79;21109;-65
2022/01/03 01:11:56;;;;;;;18.15;11.08;;;;;;;1.22;100.00;98180.53;1804770;79;21462;-66
2022/01/03 01:14:26;;;;;;;14.25;9.18;;;;;;;1.25;100.00;98172.14;1804573;79;21047;-64
2022/01/03 01:16:54;;;;;;;16.45;12.40;;;;;;;1.27;100.00;98166.11;1805107;79;20948;-66
2022/01/03 01:19:22;;;;;;;18.48;11.88;;;;;;;1.25;100.00;98157.11;1804741;79;20960;-66
2022/01/03 01:21:51;;;;;;;14.15;9.05;;;;;;;1.28;100.00;98155.33;1809106;79;21167;-66
2022/01/03 01:24:22;;;;;;;10.72;8.08;;;;;;;1.29;100.00;98138.42;1805012;79;21565;-65
2022/01/03 01:29:37;;;;;;;20.90;13.75;;;;;;;1.34;100.00;98115.27;1804908;79;21439;-65
2022/01/03 01:32:06;;;;;;;24.27;16.93;;;;;;;1.39;100.00;98123.84;1805173;79;20889;-64
2022/01/03 01:34:34;;;;;;;10.85;9.45;;;;;;;1.41;100.00;98129.70;1783165;79;20885;-65
2022/01/03 01:37:02;;;;;;;19.85;11.70;;;;;;;1.40;100.00;98107.75;1804717;79;21467;-62
2022/01/03 01:39:31;;;;;;;14.95;10.90;;;;;;;1.46;100.00;98106.82;1805496;79;20961;-64
2022/01/03 01:42:02;;;;;;;10.48;8.83;;;;;;;1.49;100.00;98106.88;1807311;79;20909;-66
2022/01/03 01:44:32;;;;;;;19.80;10.75;;;;;;;1.52;100.00;98113.55;1823304;78;20957;-64
2022/01/03 01:47:05;;;;;;;19.00;11.03;;;;;;;1.53;100.00;98104.59;1807527;79;21119;-64
2022/01/03 01:49:39;;;;;;;17.92;12.20;;;;;;;1.56;100.00;98094.87;1814677;78;20924;-66
2022/01/03 01:52:06;;;;;;;14.35;10.08;;;;;;;1.60;100.00;98082.28;1836077;78;21527;-65
2022/01/03 01:54:37;;;;;;;15.53;8.33;;;;;;;1.65;100.00;98069.69;1839207;77;20921;-65
2022/01/03 01:57:11;;;;;;;12.80;9.20;;;;;;;1.64;100.00;98053.52;1837550;78;20949;-63
2022/01/03 01:59:59;;;;;;;15.50;9.33;;;;;;;1.64;100.00;98035.00;1837426;77;21131;-63
2022/01/03 02:02:38;;;;;;;13.78;11.05;;;;;;;1.65;100.00;98004.36;1837416;78;20949;-63
2022/01/03 02:05:32;;;;;;;16.90;9.98;;;;;;;1.62;100.00;97979.70;1833749;78;21059;-67
2022/01/03 02:08:16;;;;;;;19.25;11.85;;;;;;;1.59;100.00;97960.32;1804780;79;20956;-64
2022/01/03 02:11:15;;;;;;;21.52;14.43;;;;;;;1.61;100.00;97966.71;1781768;79;21431;-64
2022/01/03 02:13:43;;;;;;;15.78;12.88;;;;;;;1.61;100.00;98005.06;1804787;79;21086;-65
2022/01/03 02:16:11;;;;;;;19.20;13.95;;;;;;;1.63;100.00;98006.95;1804655;79;20996;-63
2022/01/03 02:18:40;;;;;;;21.12;12.85;;;;;;;1.65;100.00;98024.20;1804449;79;21055;-64
2022/01/03 02:21:10;;;;;;;11.30;9.50;;;;;;;1.69;100.00;98024.03;1804109;79;21050;-65
2022/01/03 02:23:39;;;;;;;22.17;14.47;;;;;;;1.73;100.00;98011.64;1804853;79;21518;-64
2022/01/03 02:26:07;;;;;;;14.93;10.60;;;;;;;1.73;100.00;98011.13;1804923;79;21864;-66
2022/01/03 02:28:33;;;;;;;14.25;8.53;;;;;;;1.76;100.00;97990.01;1804917;79;20893;-65
2022/01/03 02:31:02;;;;;;;21.30;13.28;;;;;;;1.86;100.00;97998.14;1804765;79;20900;-66
2022/01/03 02:33:29;;;;;;;19.30;13.28;;;;;;;1.97;100.00;97988.57;1804525;79;20929;-66
2022/01/03 02:35:56;;;;;;;17.20;13.18;;;;;;;2.10;100.00;97990.39;1804762;79;20953;-64
2022/01/03 02:38:23;;;;;;;20.27;13.90;;;;;;;2.16;100.00;97970.13;1782516;79;21079;-65
2022/01/03 02:40:50;;;;;;;13.43;9.88;;;;;;;2.19;100.00;97984.73;1804775;79;21499;-65
2022/01/03 02:43:17;;;;;;;17.42;12.37;;;;;;;2.17;100.00;97963.78;1805008;79;20964;-65
2022/01/03 02:45:45;;;;;;;20.12;14.80;;;;;;;2.17;100.00;97982.84;1805977;77;21016;-61
2022/01/03 02:48:12;;;;;;;17.77;12.00;;;;;;;2.12;100.00;97972.96;1841373;77;20950;-65
2022/01/03 02:50:40;;;;;;;25.52;17.12;;;;;;;2.10;100.00;97963.92;1837702;78;21161;-65
2022/01/03 02:53:07;;;;;;;15.15;11.78;;;;;;;2.12;100.00;97976.94;1808817;78;20968;-64
2022/01/03 02:55:35;;;;;;;20.95;13.10;;;;;;;2.12;100.00;97951.79;1822858;78;20892;-66
2022/01/03 02:58:08;;;;;;;17.67;13.53;;;;;;;2.12;100.00;97957.08;1823964;78;20905;-65
2022/01/03 03:00:45;;;;;;;16.27;10.55;;;;;;;2.14;100.00;97943.89;1804681;79;20859;-65
2022/01/03 03:03:10;;;;;;;17.15;11.30;;;;;;;2.13;100.00;97940.97;1804354;79;21485;-63
2022/01/03 03:05:37;;;;;;;20.92;13.85;;;;;;;2.15;100.00;97928.80;1815594;78;20858;-65
2022/01/03 03:08:04;;;;;;;18.52;12.63;;;;;;;2.18;100.00;97933.64;1837630;77;20897;-63
2022/01/03 03:10:33;;;;;;;14.20;9.85;;;;;;;2.22;100.00;97916.75;1837528;77;20910;-63
2022/01/03 03:13:01;;;;;;;14.07;10.53;;;;;;;2.27;100.00;97895.65;1837642;77;20898;-65
2022/01/03 03:15:29;;;;;;;17.73;9.50;;;;;;;2.38;100.00;97923.08;1814330;78;21100;-65
2022/01/03 03:17:57;;;;;;;18.95;12.80;;;;;;;2.40;100.00;97909.09;1837567;78;20922;-67
2022/01/03 03:20:26;;;;;;;15.45;11.12;;;;;;;2.49;100.00;97902.34;1837585;78;20890;-65
2022/01/03 03:22:54;;;;;;;14.28;10.70;;;;;;;2.57;100.00;97904.58;1837811;78;20913;-63
2022/01/03 03:25:26;;;;;;;16.60;13.70;;;;;;;2.56;100.00;97886.57;1837590;78;20889;-63
2022/01/03 03:27:57;;;;;;;17.05;12.35;;;;;;;2.64;100.00;97882.70;1837566;78;21160;-65
2022/01/03 03:30:37;;;;;;;13.85;9.63;;;;;;;2.65;100.00;97901.55;1837441;77;20921;-66
2022/01/03 03:33:10;;;;;;;13.05;9.95;;;;;;;2.60;100.00;97898.82;1837775;78;20901;-62
2022/01/03 03:35:39;;;;;;;14.30;11.18;;;;;;;2.66;100.00;97866.58;1837481;77;21589;-65
2022/01/03 03:38:07;;;;;;;16.25;11.83;;;;;;;2.69;100.00;97880.66;1837911;78;21550;-64
2022/01/03 03:40:35;;;;;;;;;;;;;;;2.69;100.00;97886.75;1840251;78;21144;-66
2022/01/03 03:43:03;;;;;;;14.87;11.00;;;;;;;2.66;100.00;97858.10;1837492;78;20147;-66
2022/01/03 03:45:32;;;;;;;10.18;8.50;;;;;;;2.76;100.00;97878.63;1837654;78;20996;-63
2022/01/03 03:47:59;;;;;;;15.90;12.88;;;;;;;2.79;100.00;97882.11;1837515;78;20932;-63
2022/01/03 03:50:26;;;;;;;18.57;12.65;;;;;;;2.87;100.00;97869.00;1837556;78;20964;-65
2022/01/03 03:52:53;;;;;;;15.58;10.78;;;;;;;2.92;100.00;97865.09;1814371;78;21129;-63
2022/01/03 03:55:20;;;;;;;14.80;9.83;;;;;;;3.04;100.00;97867.59;1837367;78;20905;-64
2022/01/03 03:57:47;;;;;;;12.18;9.88;;;;;;;3.13;100.00;97859.50;1836573;77;21023;-63
2022/01/03 04:00:17;;;;;;;14.78;10.55;;;;;;;3.23;100.00;97872.88;1847144;77;20901;-63
2022/01/03 04:02:45;;;;;;;15.18;9.78;;;;;;;3.29;100.00;97857.31;1848853;77;20952;-68
2022/01/03 04:05:13;;;;;;;14.78;10.35;;;;;;;3.35;100.00;97847.56;1841055;77;21139;-66
2022/01/03 04:07:41;;;;;;;;;;;;;;;3.39;100.00;97848.67;1827062;78;21028;-63
2022/01/03 04:10:11;;;;;;;15.63;10.18;;;;;;;3.40;100.00;97837.80;1814480;78;20476;-64
2022/01/03 04:12:39;;;;;;;16.17;9.83;;;;;;;3.42;100.00;97845.52;1814094;78;20956;-63
2022/01/03 04:15:09;;;;;;;12.58;9.70;;;;;;;3.43;100.00;97835.20;1804724;79;20948;-63
2022/01/03 04:17:36;;;;;;;13.18;9.53;;;;;;;3.43;100.00;97845.28;1804822;79;21132;-65
2022/01/03 04:20:07;;;;;;;11.20;9.13;;;;;;;3.44;100.00;97828.83;1804584;79;20936;-66
2022/01/03 04:22:36;;;;;;;12.33;8.95;;;;;;;3.46;100.00;97829.39;1805097;79;21355;-64
2022/01/03 04:25:05;;;;;;;16.30;10.43;;;;;;;3.53;100.00;97826.52;1804663;79;20826;-66
2022/01/03 04:27:34;;;;;;;12.18;8.40;;;;;;;3.53;100.00;97847.73;1805099;78;20896;-65
2022/01/03 04:30:06;;;;;;;13.75;10.08;;;;;;;3.54;100.00;97835.56;1804955;79;21467;-63
2022/01/03 04:32:34;;;;;;;13.15;9.03;;;;;;;3.53;100.00;97823.86;1804915;79;21623;-63
2022/01/03 04:35:02;;;;;;;12.53;7.72;;;;;;;3.51;100.00;97820.16;1804816;78;20861;-65
2022/01/03 04:37:30;;;;;;;11.57;8.80;;;;;;;3.49;100.00;97811.64;1804915;79;20917;-65
2022/01/03 04:39:58;;;;;;;12.80;10.08;;;;;;;3.53;100.00;97819.39;1804852;79;20943;-65
2022/01/03 04:42:25;;;;;;;16.45;11.65;;;;;;;3.52;100.00;97816.44;1804962;79;21651;-63
2022/01/03 04:44:52;;;;;;;9.73;7.60;;;;;;;3.56;100.00;97814.90;1804711;78;20909;-63
2022/01/03 04:47:19;;;;;;;10.68;7.92;;;;;;;3.60;100.00;97819.98;1805496;79;21028;-64
2022/01/03 04:49:46;;;;;;;10.40;8.18;;;;;;;3.64;100.00;97809.66;1806945;79;21474;-63
2022/01/03 04:52:14;;;;;;;10.85;8.35;;;;;;;3.67;100.00;97821.09;1806157;78;21360;-64
2022/01/03 04:54:42;;;;;;;13.72;9.30;;;;;;;3.66;100.00;97814.19;1804796;79;21270;-65
2022/01/03 04:57:09;;;;;;;13.72;9.10;;;;;;;3.66;100.00;97815.52;1804666;79;21458;-66
2022/01/03 04:59:39;;;;;;;22.15;10.70;;;;;;;3.68;100.00;97817.94;1804649;79;20956;-64
2022/01/03 05:02:06;;;;;;;22.50;14.75;;;;;;;3.72;100.00;97813.70;1805062;79;20948;-65
2022/01/03 05:04:34;;;;;;;12.93;10.25;;;;;;;3.69;100.00;97822.97;1805092;79;26637;-65
2022/01/03 05:07:01;;;;;;;38.78;22.22;;;;;;;3.69;100.00;97823.50;1835208;78;21154;-64
2022/01/03 05:09:30;;;;;;;68.55;40.50;;;;;;;3.68;100.00;97825.36;1813420;77;28542;-65
2022/01/03 05:11:56;;;;;;;48.02;28.27;;;;;;;3.69;100.00;97825.62;1807134;79;20866;-66
2022/01/03 05:14:23;;;;;;;27.70;17.30;;;;;;;3.69;100.00;97826.95;1807400;79;20938;-66
2022/01/03 05:16:52;;;;;;;49.88;26.35;;;;;;;3.70;100.00;97817.95;1796098;79;21052;-64
2022/01/03 05:19:22;;;;;;;77.40;44.13;;;;;;;3.71;100.00;97814.77;1819716;78;20901;-65
2022/01/03 05:21:52;;;;;;;31.75;18.70;;;;;;;3.74;100.00;97806.30;1831362;77;20853;-66
2022/01/03 05:24:19;;;;;;;61.20;32.75;;;;;;;3.72;100.00;97797.78;1801702;79;20921;-64
2022/01/03 05:26:46;;;;;;;27.10;19.02;;;;;;;3.74;100.00;97803.64;1807385;78;21550;-65
2022/01/03 05:29:15;;;;;;;18.23;11.95;;;;;;;3.76;100.00;97794.91;1807783;79;20858;-65
2022/01/03 05:31:42;;;;;;;13.40;9.75;;;;;;;3.78;100.00;97785.64;1807492;79;21773;-64
2022/01/03 05:34:09;;;;;;;13.08;9.75;;;;;;;3.80;100.00;97782.75;1796081;79;21447;-65
2022/01/03 05:36:36;;;;;;;10.03;8.98;;;;;;;3.86;100.00;97792.34;1807360;79;20826;-63
2022/01/03 05:39:04;;;;;;;18.30;12.78;;;;;;;3.89;100.00;97792.36;1807479;79;21491;-65
2022/01/03 05:41:32;;;;;;;15.20;11.85;;;;;;;3.90;100.00;97792.12;1807357;79;20910;-65
2022/01/03 05:44:00;;;;;;;23.42;16.25;;;;;;;3.97;100.00;97790.55;1807470;79;21164;-65
2022/01/03 05:46:27;;;;;;;38.67;28.20;;;;;;;3.96;100.00;97783.66;1807207;79;21515;-64
2022/01/03 05:48:54;;;;;;;36.60;26.40;;;;;;;4.01;100.00;97783.16;1807409;78;20882;-65
2022/01/03 05:51:23;;;;;;;29.03;19.63;;;;;;;4.09;100.00;97785.87;1807608;78;21456;-67
2022/01/03 05:53:50;;;;;;;19.37;15.13;;;;;;;4.19;100.00;97771.86;1807736;79;21485;-65
2022/01/03 05:56:17;;;;;;;14.15;9.98;;;;;;;4.22;100.00;97778.80;1807264;79;21178;-66
2022/01/03 05:58:44;;;;;;;16.12;11.83;;;;;;;4.32;100.00;97771.43;1807394;78;20850;-64
2022/01/03 06:01:11;;;;;;;20.60;12.93;;;;;;;4.37;100.00;97774.11;1807312;79;20956;-63
2022/01/03 06:04:13;;;;;;;32.08;18.80;;;;;;;4.42;100.00;97771.48;1807156;79;20854;-66
2022/01/03 06:06:53;;;;;;;25.05;13.10;;;;;;;4.49;100.00;97769.94;1734950;81;21554;-66
2022/01/03 06:09:01;;;;;;;18.00;11.45;;;;;;;4.61;100.00;97779.04;1733142;81;22585;-66
2022/01/03 06:11:29;;;;;;;15.60;10.23;;;;;;;4.62;100.00;97781.42;1737715;81;20900;-65
2022/01/03 06:13:58;;;;;;;15.90;11.15;;;;;;;4.64;100.00;97779.31;1739517;81;21210;-66
2022/01/03 06:16:27;;;;;;;;;;;;;;;4.68;100.00;97770.30;1743523;81;20900;-64
2022/01/03 06:18:55;;;;;;;20.48;13.55;;;;;;;4.72;100.00;97778.80;1731973;81;20469;-65
2022/01/03 06:21:22;;;;;;;29.23;17.60;;;;;;;4.74;100.00;97763.94;1740152;81;21200;-65
2022/01/03 06:23:49;;;;;;;20.50;14.20;;;;;;;4.79;100.00;97769.27;1732557;81;21008;-65
2022/01/03 06:26:16;;;;;;;39.70;22.13;;;;;;;4.86;100.00;97767.17;1733747;81;20956;-66
2022/01/03 06:28:44;;;;;;;;;;;;;;;4.88;100.00;97774.37;1740427;81;20932;-64
2022/01/03 06:31:14;;;;;;;51.28;25.40;;;;;;;4.94;100.00;97763.22;1744422;81;20083;-65
2022/01/03 06:33:42;;;;;;;25.08;14.83;;;;;;;4.94;100.00;97768.53;1734560;81;21328;-64
2022/01/03 06:36:10;;;;;;;20.08;13.35;;;;;;;4.96;100.00;97774.93;1739712;81;20979;-67
2022/01/03 06:38:36;;;;;;;12.70;9.95;;;;;;;4.99;100.00;97775.73;1742672;81;21023;-66
2022/01/03 06:41:04;;;;;;;18.50;9.23;;;;;;;4.98;100.00;97774.14;1689395;82;20979;-65
2022/01/03 06:43:31;;;;;;;13.28;8.70;;;;;;;5.01;100.00;97760.32;1677288;85;21053;-65
2022/01/03 06:45:58;;;;;;;12.65;9.13;;;;;;;5.04;100.00;97770.42;1679028;84;21176;-64
2022/01/03 06:48:27;;;;;;;18.90;11.40;;;;;;;5.08;100.00;97768.85;1698999;83;20901;-66
2022/01/03 06:50:54;;;;;;;16.20;10.53;;;;;;;5.09;100.00;97775.76;1697330;83;20948;-65
2022/01/03 06:53:22;;;;;;;20.30;13.08;;;;;;;5.04;100.00;97757.12;1750997;81;21079;-63
2022/01/03 06:55:50;;;;;;;24.55;14.33;;;;;;;5.03;100.00;97770.96;1688302;83;20995;-65
2022/01/03 06:58:16;;;;;;;37.53;19.17;;;;;;;5.00;100.00;97770.67;1691188;83;21963;-62
2022/01/03 07:00:43;;;;;;;14.47;9.20;;;;;;;4.97;100.00;97763.22;1695213;84;20940;-64
2022/01/03 07:03:11;;;;;;;27.25;15.18;;;;;;;4.99;100.00;97761.11;1695320;84;21007;-62
2022/01/03 07:05:38;;;;;;;13.20;9.83;;;;;;;4.98;100.00;97758.98;1699618;83;20944;-64
2022/01/03 07:08:08;;;;;;;15.43;9.28;;;;;;;5.02;100.00;97761.40;1698615;83;21299;-63
2022/01/03 07:10:34;;;;;;;22.25;12.45;;;;;;;5.10;100.00;97762.21;1733828;81;21184;-61
2022/01/03 07:13:01;;;;;;;31.97;23.40;;;;;;;5.13;100.00;97733.75;1753598;81;20940;-65
2022/01/03 07:21:01;;;;;;;31.77;23.57;;;;;;;5.25;100.00;97750.81;1722311;83;21522;-66
2022/01/03 07:23:29;;;;;;;30.68;22.50;;;;;;;5.29;100.00;97747.91;1722344;83;21173;-65
2022/01/03 07:25:56;;;;;;;65.57;43.75;;;;;;;5.33;100.00;97746.30;1735137;81;20881;-67
2022/01/03 07:28:23;;;;;;;24.43;14.98;;;;;;;5.34;100.00;97739.92;1742052;81;20944;-66
2022/01/03 07:30:50;;;;;;;14.68;10.50;;;;;;;5.41;100.00;97738.86;1740965;81;21015;-66
2022/01/03 07:33:18;;;;;;;18.27;11.08;;;;;;;5.50;100.00;97733.28;1733681;81;21106;-66
2022/01/03 07:35:45;;;;;;;12.00;9.67;;;;;;;5.60;100.00;97735.95;1733452;81;21241;-67
2022/01/03 07:38:13;;;;;;;13.40;8.95;;;;;;;5.64;100.00;97734.90;1733145;81;21267;-67
2022/01/03 07:40:41;;;;;;;29.25;16.23;;;;;;;5.67;100.00;97732.49;1744423;81;21035;-67
2022/01/03 07:43:11;;;;;;;18.27;12.30;;;;;;;5.75;100.00;97724.50;1740044;82;21558;-67
2022/01/03 07:45:38;;;;;;;14.50;8.75;;;;;;;5.78;100.00;97730.11;1732683;81;20976;-65
2022/01/03 07:48:04;;;;;;;12.75;9.15;;;;;;;5.81;100.00;97735.42;1719688;83;21192;-67
2022/01/03 07:50:33;;;;;;;28.92;15.45;;;;;;;5.82;100.00;97722.91;1708139;83;21011;-67
2022/01/03 07:53:02;;;;;;;28.90;16.37;;;;;;;5.84;100.00;97718.91;1704722;83;20983;-67
2022/01/03 07:55:29;;;;;;;20.20;12.37;;;;;;;5.90;100.00;97723.69;1750162;81;20996;-69
2022/01/03 07:57:59;;;;;;;15.60;9.90;;;;;;;5.96;100.00;97720.80;1731577;82;20991;-69
2022/01/03 08:00:31;;;;;;;30.62;17.37;;;;;;;5.97;100.00;97714.93;1747324;81;21860;-61
2022/01/03 08:02:59;;;;;;;20.85;12.30;;;;;;;6.02;100.00;97713.59;1756528;81;21109;-70
2022/01/03 08:05:26;;;;;;;29.87;15.35;;;;;;;6.17;100.00;97712.25;1748136;81;21069;-70
2022/01/03 08:07:53;;;;;;;20.55;10.63;;;;;;;6.19;100.00;97702.64;1738483;81;21019;-69
2022/01/03 08:10:23;;;;;;;37.90;19.60;;;;;;;6.26;100.00;97711.69;1746979;81;21558;-71
2022/01/03 08:12:50;;;;;;;28.80;14.87;;;;;;;6.28;100.00;97694.91;1730128;81;21133;-70
2022/01/03 08:15:16;;;;;;;21.37;11.30;;;;;;;6.32;100.00;97694.09;1722854;83;20999;-70
2022/01/03 08:17:46;;;;;;;57.50;39.33;;;;;;;6.38;100.00;97696.20;1728332;81;21027;-69
2022/01/03 08:20:13;;;;;;;;;;;;;;;6.39;100.00;97685.28;1741920;81;20983;-70
2022/01/03 08:22:44;;;;;;;40.92;29.63;;;;;;;6.42;100.00;97666.61;1729697;81;20168;-73
2022/01/03 08:25:11;;;;;;;13.75;11.30;;;;;;;6.41;100.00;97685.78;1730121;81;21137;-69
2022/01/03 08:27:38;;;;;;;80.95;72.32;;;;;;;6.43;100.00;97686.85;1749622;81;21032;-68
2022/01/03 08:30:08;;;;;;;436.70;363.12;;;;;;;6.48;100.00;97690.03;1745530;81;20905;-69
2022/01/03 08:32:35;;;;;;;14.58;11.38;;;;;;;6.46;100.00;97690.84;1726038;81;20983;-70
2022/01/03 08:35:07;;;;;;;41.85;35.23;;;;;;;6.42;100.00;97682.60;1732774;81;21036;-74
2022/01/03 08:37:34;;;;;;;49.65;33.00;;;;;;;6.43;100.00;97680.19;1727417;81;21003;-70
2022/01/03 08:40:06;;;;;;;42.95;24.67;;;;;;;6.42;100.00;97669.28;1739767;81;21023;-68
2022/01/03 08:42:35;;;;;;;82.65;35.58;;;;;;;6.41;100.00;97670.33;1732186;81;21584;-69
2022/01/03 08:45:07;;;;;;;52.27;23.87;;;;;;;6.43;100.00;97664.20;1740281;81;20999;-69
2022/01/03 08:47:34;;;;;;;62.70;29.82;;;;;;;6.48;100.00;97671.38;1734451;81;21059;-69
2022/01/03 08:50:09;;;;;;;26.33;12.53;;;;;;;6.51;100.00;97663.63;1737212;81;22363;-73
2022/01/03 08:52:35;;;;;;;35.05;19.07;;;;;;;6.53;100.00;97666.02;1733421;81;21351;-71
2022/01/03 08:55:06;;;;;;;38.00;20.72;;;;;;;6.55;100.00;97666.02;1731022;81;21522;-70
2022/01/03 08:57:41;;;;;;;36.10;17.70;;;;;;;6.58;100.00;97652.13;1736475;81;21066;-72
2022/01/03 09:00:10;;;;;;;20.90;12.60;;;;;;;6.65;100.00;97638.52;1735451;81;21027;-69
2022/01/03 09:02:38;;;;;;;18.37;11.00;;;;;;;6.74;100.00;97658.74;1730865;81;21226;-72
2022/01/03 09:05:06;;;;;;;13.80;8.85;;;;;;;7.02;100.00;97655.89;1736528;81;21731;-71
2022/01/03 09:07:36;;;;;;;12.30;8.55;;;;;;;7.16;100.00;97636.07;1731254;81;21069;-71
2022/01/03 09:10:11;;;;;;;54.00;27.07;;;;;;;7.49;100.00;97645.92;1737097;81;21015;-71
2022/01/03 09:12:40;;;;;;;54.15;27.10;;;;;;;7.67;100.00;97639.11;1736772;81;20927;-70
2022/01/03 09:15:10;;;;;;;58.50;23.18;;;;;;;7.47;100.00;97636.09;1735926;81;21183;-69
2022/01/03 09:17:36;;;;;;;27.75;16.05;;;;;;;7.32;100.00;97630.06;1728985;81;21624;-68
2022/01/03 09:20:08;;;;;;;45.37;23.80;;;;;;;7.23;100.00;97620.00;1738642;81;21102;-70
2022/01/03 09:22:45;;;;;;;40.28;18.98;;;;;;;7.24;100.00;97624.25;1732566;81;20928;-67
2022/01/03 09:30:48;;;;;;;35.30;18.65;;;;;;;7.09;100.00;97602.48;1670881;84;21620;-71
2022/01/03 09:33:17;;;;;;;56.42;27.32;;;;;;;7.09;100.00;97595.03;1703220;83;21676;-72
2022/01/03 09:35:44;;;;;;;64.23;30.03;;;;;;;7.05;100.00;97600.65;1689529;84;21514;-68
2022/01/03 09:38:12;;;;;;;28.25;13.95;;;;;;;6.95;100.00;97580.72;1726628;83;21569;-68
2022/01/03 09:40:40;;;;;;;30.55;16.23;;;;;;;6.93;100.00;97588.99;1726532;83;21115;-69
2022/01/03 09:43:10;;;;;;;15.88;8.65;;;;;;;7.08;100.00;97596.11;1723280;83;21895;-68
2022/01/03 09:45:39;;;;;;;40.05;21.97;;;;;;;7.44;100.00;97569.11;1665380;84;21041;-66
2022/01/03 09:48:07;;;;;;;34.55;17.02;;;;;;;7.49;100.00;97591.20;1672576;84;21105;-68
2022/01/03 09:50:34;;;;;;;57.67;28.73;;;;;;;7.82;100.00;97589.30;1678646;82;21143;-71
2022/01/03 09:53:02;;;;;;;26.65;12.35;;;;;;;8.26;100.00;97581.04;1711158;83;21662;-67
2022/01/03 09:55:49;;;;;;;;;;;;;;;8.22;100.00;97568.53;1714919;83;21024;-69
2022/01/03 09:58:17;;;;;;;16.00;7.97;;;;;;;8.15;100.00;97570.20;1668438;84;20172;-70
2022/01/03 10:00:48;;;;;;;30.05;16.20;;;;;;;7.90;100.00;97571.31;1695862;83;21603;-68
2022/01/03 10:03:17;;;;;;;99.37;47.13;;;;;;;7.81;100.00;97563.11;1688820;83;21588;-68
2022/01/03 10:05:46;;;;;;;32.80;16.65;;;;;;;7.68;100.00;97578.48;1676241;84;21915;-70
2022/01/03 10:08:14;;;;;;;29.18;14.40;;;;;;;7.55;100.00;97562.60;1706915;83;21518;-67
2022/01/03 10:10:41;;;;;;;29.27;17.30;;;;;;;7.53;100.00;97563.97;1678094;83;21064;-68
2022/01/03 10:13:08;;;;;;;14.73;8.18;;;;;;;7.53;100.00;97567.97;1704303;83;20964;-67
2022/01/03 10:15:39;;;;;;;21.65;11.33;;;;;;;7.57;100.00;97563.64;1708430;83;21066;-69
2022/01/03 10:18:06;;;;;;;23.52;13.40;;;;;;;7.49;100.00;97543.16;1673443;84;21227;-68
2022/01/03 10:20:40;;;;;;;;;;;;;;;7.53;100.00;97558.08;1676457;84;21112;-67
2022/01/03 10:23:08;;;;;;;;;;;;;;;7.50;100.00;97553.31;1709745;82;20447;-67
2022/01/03 10:25:36;;;;;;;;;;;;;;;7.45;100.00;97543.48;1706697;83;20216;-68
2022/01/03 10:28:06;;;;;;;;;;;;;;;7.45;100.00;97557.38;1707214;83;20147;-67
2022/01/03 10:30:45;;;;;;;;;;;;;;;7.34;100.00;97557.98;1684388;83;20100;-66
2022/01/03 10:33:20;;;;;;;;;;;;;;;7.27;100.00;97556.18;1707373;83;20132;-65
2022/01/03 10:35:53;;;;;;;;;;;;;;;7.24;100.00;97550.87;1711276;83;20481;-69
2022/01/03 10:38:32;;;;;;;;;;;;;;;7.24;100.00;97573.55;1715114;82;20182;-69
2022/01/03 10:41:11;;;;;;;;;;;;;;;7.23;100.00;97557.84;1715764;83;20869;-71
2022/01/03 10:43:38;;;;;;;;;;;;;;;7.22;100.00;97569.03;1712167;82;21145;-72
2022/01/03 10:46:29;;;;;;;;;;;;;;;7.24;100.00;97564.20;1710082;83;20088;-65
2022/01/03 10:49:07;;;;;;;;;;;;;;;7.19;100.00;97536.78;1648061;86;20173;-72
2022/01/03 10:51:35;;;;;;;;;;;;;;;7.20;100.00;97561.86;1641761;86;20278;-70
2022/01/03 10:54:16;;;;;;;;;;;;;;;7.19;100.00;97571.47;1614339;87;20163;-75
2022/01/03 10:56:45;;;;;;;;;;;;;;;7.15;100.00;97555.75;1648776;86;20213;-71
2022/01/03 10:59:26;;;;;;;;;;;;;;;7.16;100.00;97548.81;1619269;87;20217;-71
2022/01/03 11:01:59;;;;;;;;;;;;;;;7.14;100.00;97557.63;1641638;86;20455;-73
2022/01/03 11:04:50;;;;;;;;;;;;;;;7.13;100.00;97553.90;1620981;86;20581;-70
2022/01/03 11:13:13;;;;;;;;;;;;;;;7.12;100.00;97545.66;1595029;89;20542;-70
2022/01/03 11:15:42;;;;;;;;;;;;;;;7.09;100.00;97535.79;1607213;88;20292;-69
2022/01/03 11:18:14;;;;;;;;;;;;;;;7.13;100.00;97549.89;1599579;89;20258;-73
2022/01/03 11:20:44;;;;;;;;;;;;;;;7.15;100.00;97541.87;1597110;89;20250;-70
2022/01/03 11:23:18;;;;;;;;;;;;;;;7.17;100.00;97541.05;1641200;85;21147;-74
2022/01/03 11:25:52;;;;;;;;;;;;;;;7.17;100.00;97541.05;1652624;85;20218;-75
2022/01/03 11:28:22;;;;;;;;;;;;;;;7.20;100.00;97534.36;1653174;86;20217;-66
2022/01/03 11:30:52;;;;;;;;;;;;;;;7.20;100.00;97533.84;1654684;86;20282;-73
2022/01/03 11:33:19;;;;;;;;;;;;;;;7.26;100.00;97543.38;1656703;85;20233;-67
2022/01/03 11:35:48;;;;;;;;;;;;;;;7.38;100.00;97539.55;1650064;85;21128;-69
2022/01/03 11:38:19;;;;;;;;;;;;;;;7.49;100.00;97537.81;1655206;85;20266;-66
2022/01/03 11:40:46;;;;;;;;;;;;;;;7.65;100.00;97539.01;1657089;85;20166;-70
2022/01/03 11:43:14;;;;;;;;;;;;;;;7.74;100.00;97549.30;1652865;85;20209;-70
2022/01/03 11:45:40;;;;;;;;;;;;;;;7.65;100.00;97539.01;1666792;86;20174;-71
2022/01/03 11:48:14;;;;;;;;;;;;;;;7.61;100.00;97534.76;1651077;84;21383;-73
2022/01/03 11:50:42;;;;;;;;;;;;;;;7.49;100.00;97538.36;1692996;84;20216;-68
2022/01/03 11:53:09;;;;;;;;;;;;;;;7.48;100.00;97524.77;1701947;83;20180;-68
2022/01/03 11:55:39;;;;;;;;;;;;;;;7.39;100.00;97523.78;1699335;83;20191;-68
2022/01/03 11:58:13;;;;;;;;;;;;;;;;;;;;;
2022/01/03 12:03:42;;;;;;;;;;;;;;;7.30;100.00;97527.62;1713229;83;20085;-71
2022/01/03 12:06:09;;;;;;;;;;;;;;;7.18;100.00;97522.66;1693984;83;20149;-61
2022/01/03 12:08:38;;;;;;;;;;;;;;;7.13;100.00;97485.35;1697091;83;20236;-67